KACT/ACT METAR and TAF weather

Enter ICAO airport designator
Station Type Date Time Source
KACT METAR 2018/07/16 23:51 UTC NOAA

KACT 162351Z 18013KT 9SM CLR 38/16 A2992 RMK AO2 SLP123 T03780161 10400 20356 56016


Station Type Date Time Source
KACT Decoded METAR 2018/07/16 23:51 UTC NOAA

WACO REGIONAL AIRPORT, TX, United States (KACT) 31-36N 97-13W 151M
Jul 16, 2018 - 07:51 PM EDT / 2018.07.16 2351 UTC
Wind: from the S (180 degrees) at 15 MPH (13 KT):0
Visibility: 9 mile(s):0
Sky conditions: clear
Temperature: 100.0 F (37.8 C)
Heat index: 100.6 F (38.1 C):1
Dew Point: 61.0 F (16.1 C)
Relative Humidity: 27%
Pressure (altimeter): 29.92 in. Hg (1013 hPa)
Pressure tendency: 0.05 inches (1.6 hPa) lower than three hours ago
ob: KACT 162351Z 18013KT 9SM CLR 38/16 A2992 RMK AO2 SLP123 T03780161 10400 20356 56016
cycle: 0

Station Type Date Time Source
KACT TAF 2018/07/16 20:52 UTC NOAA

TAF
AMD KACT 162050Z 1620/1718 16012KT P6SM FEW070
FM171300 21008KT P6SM SKC


Example: see airport list